createdAt,value
2023-04-07T04:43:26.214Z,77.67
2023-04-07T04:45:53.884Z,75.90
2023-04-07T04:48:25.060Z,74.97
2023-04-07T04:50:52.411Z,80.97
2023-04-07T04:53:19.691Z,75.93
2023-04-07T04:55:53.265Z,77.93
2023-04-07T04:58:32.346Z,77.07
2023-04-07T05:01:00.730Z,80.40
2023-04-07T05:03:36.628Z,79.03
2023-04-07T05:06:11.606Z,83.23
2023-04-07T05:08:41.456Z,81.97
2023-04-07T05:11:09.979Z,77.50
2023-04-07T05:13:38.548Z,77.33
2023-04-07T05:16:06.674Z,76.07
2023-04-07T05:18:35.603Z,79.77
2023-04-07T05:21:04.962Z,78.20
2023-04-07T05:23:35.116Z,78.00
2023-04-07T05:26:03.364Z,80.97
2023-04-07T05:28:31.650Z,79.47
2023-04-07T05:31:07.014Z,74.97
2023-04-07T05:33:36.091Z,78.80
2023-04-07T05:36:04.079Z,75.47
2023-04-07T05:38:33.827Z,79.33
2023-04-07T05:41:08.735Z,73.50
2023-04-07T05:43:37.398Z,78.63
2023-04-07T05:46:05.853Z,78.33
2023-04-07T05:48:36.691Z,74.87
2023-04-07T05:51:04.686Z,75.37
2023-04-07T05:53:32.151Z,78.13
2023-04-07T05:55:59.471Z,74.47
2023-04-07T05:58:42.003Z,78.33
2023-04-07T06:01:10.871Z,67.97
2023-04-07T06:03:38.316Z,74.03
2023-04-07T06:06:13.568Z,77.10
2023-04-07T06:08:40.946Z,70.20
2023-04-07T06:11:08.343Z,69.50
2023-04-07T06:13:35.684Z,65.20
2023-04-07T06:16:03.597Z,69.47
2023-04-07T06:18:31.210Z,69.00
2023-04-07T06:20:59.730Z,72.67
2023-04-07T06:23:28.240Z,67.10
2023-04-07T06:25:55.860Z,66.53
2023-04-07T06:28:23.337Z,69.13
2023-04-07T06:30:51.139Z,64.30
2023-04-07T06:33:18.810Z,64.60
2023-04-07T06:35:46.579Z,68.50
2023-04-07T06:38:14.030Z,67.03
2023-04-07T06:40:41.352Z,67.13
2023-04-07T06:43:08.864Z,67.63
2023-04-07T06:45:43.994Z,63.93
2023-04-07T06:48:11.441Z,65.80
2023-04-07T06:50:38.945Z,65.47
2023-04-07T06:53:06.224Z,66.73
2023-04-07T06:55:33.580Z,66.53
2023-04-07T07:02:51.379Z,65.20
2023-04-07T07:05:18.825Z,66.00
2023-04-07T07:07:46.228Z,65.83
2023-04-07T07:10:13.718Z,61.77
2023-04-07T07:12:41.301Z,63.10
2023-04-07T07:15:08.887Z,61.80
2023-04-07T07:17:36.483Z,63.90
2023-04-07T07:20:03.944Z,64.83
2023-04-07T07:22:31.314Z,61.87
2023-04-07T07:24:58.618Z,62.63
2023-04-07T07:27:25.931Z,67.23
2023-04-07T07:29:53.346Z,66.90
2023-04-07T07:32:20.824Z,60.10
2023-04-07T07:34:48.165Z,61.77
2023-04-07T07:37:15.956Z,61.77
2023-04-07T07:39:43.278Z,66.83
2023-04-07T07:42:10.744Z,60.73
2023-04-07T07:44:38.062Z,64.22
2023-04-07T07:47:05.601Z,61.27
2023-04-07T07:49:33.018Z,60.10
2023-04-07T07:52:00.920Z,54.57
2023-04-07T07:54:28.338Z,61.67
2023-04-07T07:56:55.704Z,53.47
2023-04-07T07:59:23.037Z,57.90
2023-04-07T08:01:50.517Z,57.50
2023-04-07T08:04:18.240Z,55.27
2023-04-07T08:06:45.970Z,56.00
2023-04-07T08:09:13.332Z,59.30
2023-04-07T08:11:40.742Z,57.17
2023-04-07T08:14:09.817Z,52.97
2023-04-07T08:16:37.487Z,55.13
2023-04-07T08:19:04.893Z,53.00
2023-04-07T08:21:32.359Z,54.70
2023-04-07T08:24:01.004Z,51.17
2023-04-07T08:26:28.615Z,48.33
2023-04-07T08:28:56.186Z,48.03
2023-04-07T08:31:23.640Z,47.53
2023-04-07T08:33:58.245Z,49.10
2023-04-07T08:36:27.620Z,49.50
2023-04-07T08:38:55.162Z,50.87
2023-04-07T08:41:28.766Z,45.67
2023-04-07T08:43:58.132Z,42.73
2023-04-07T08:46:26.347Z,49.13
2023-04-07T08:48:54.248Z,41.90
2023-04-07T08:51:28.657Z,44.00
2023-04-07T11:50:43.806Z,27.70
2023-04-07T11:53:11.649Z,25.42
2023-04-07T11:55:39.403Z,25.73
2023-04-07T11:58:10.182Z,24.53
2023-04-07T12:00:37.603Z,26.40
2023-04-07T12:03:14.736Z,26.07
2023-04-07T12:05:43.204Z,27.90
2023-04-07T12:08:10.608Z,26.37
2023-04-07T12:10:40.494Z,25.27
2023-04-07T12:13:08.836Z,25.97
2023-04-07T12:15:39.632Z,26.03
2023-04-07T12:18:07.082Z,25.13
2023-04-07T12:20:36.006Z,23.67
2023-04-07T12:23:04.938Z,28.13
2023-04-07T12:25:32.278Z,26.40
2023-04-07T12:27:59.574Z,26.27
2023-04-07T12:30:26.945Z,28.47
2023-04-07T12:32:54.587Z,30.02
2023-04-07T12:35:22.047Z,29.43
2023-04-07T12:37:50.194Z,26.83
2023-04-07T12:40:18.168Z,30.30
2023-04-07T12:42:45.596Z,26.30
2023-04-07T12:45:12.974Z,25.70
2023-04-07T12:47:40.690Z,28.73
2023-04-07T12:50:08.179Z,24.03
2023-04-07T12:52:36.313Z,27.10
2023-04-07T12:55:03.726Z,20.50
2023-04-07T12:57:31.172Z,19.70
2023-04-07T12:59:59.200Z,15.03
2023-04-07T13:02:27.536Z,12.50
2023-04-07T13:04:55.029Z,10.30
2023-04-07T13:07:22.392Z,9.60
2023-04-07T13:09:49.797Z,8.80
2023-04-07T13:12:17.143Z,10.17
2023-04-07T13:14:57.178Z,7.53
2023-04-07T13:17:35.143Z,8.40
2023-04-07T13:20:05.271Z,6.47
2023-04-07T13:22:34.223Z,5.60
2023-04-07T13:25:09.607Z,5.80
2023-04-07T13:27:37.102Z,5.63
2023-04-07T13:30:04.820Z,5.57
2023-04-07T13:32:32.428Z,5.90
2023-04-07T13:35:00.081Z,5.53
2023-04-07T13:37:27.488Z,4.43
2023-04-07T15:25:17.085Z,6.87
2023-04-07T15:27:46.696Z,7.53
2023-04-07T15:30:14.047Z,7.60
2023-04-07T15:32:41.400Z,6.17
2023-04-07T15:35:09.060Z,7.73
2023-04-07T15:37:36.607Z,5.53
2023-04-07T15:40:03.990Z,8.80
2023-04-07T15:42:31.894Z,6.23
2023-04-07T15:44:59.237Z,4.73
2023-04-07T15:47:26.651Z,6.00
2023-04-07T15:49:54.067Z,6.27
2023-04-07T15:52:21.353Z,6.17
2023-04-07T15:54:48.825Z,4.73
2023-04-07T15:57:16.790Z,4.77
2023-04-07T15:59:44.165Z,5.17
2023-04-07T16:02:14.175Z,6.67
2023-04-07T16:04:42.005Z,5.73
2023-04-07T16:07:09.333Z,6.83
2023-04-07T16:09:36.654Z,6.07
2023-04-07T16:12:04.019Z,5.63
2023-04-07T16:14:31.724Z,5.43
2023-04-07T16:16:59.426Z,5.30
2023-04-07T16:19:26.827Z,6.67
2023-04-07T16:21:54.798Z,10.70
2023-04-07T16:24:22.326Z,5.77
2023-04-07T16:26:53.704Z,5.53
2023-04-07T16:29:22.404Z,4.97
2023-04-07T16:31:50.037Z,5.30
2023-04-07T16:34:17.389Z,5.60
2023-04-07T16:36:44.809Z,9.97
2023-04-07T16:39:12.200Z,5.10
2023-04-07T16:41:39.522Z,6.80
2023-04-07T16:44:07.145Z,4.40
2023-04-07T16:46:34.611Z,4.40
2023-04-07T16:49:03.446Z,5.03
2023-04-07T16:51:31.886Z,5.30
2023-04-07T16:53:59.263Z,8.00
2023-04-07T16:56:26.620Z,5.27
2023-04-07T16:58:54.020Z,5.23
2023-04-07T17:01:21.476Z,4.95
2023-04-07T17:03:49.401Z,4.93
2023-04-07T17:06:17.017Z,5.57
2023-04-07T17:08:44.491Z,5.70
2023-04-07T17:11:13.178Z,6.03
2023-04-07T17:13:40.800Z,6.00
2023-04-07T17:16:13.406Z,7.90
2023-04-07T17:18:41.045Z,6.33
2023-04-07T17:21:08.435Z,6.70
2023-04-07T17:23:35.808Z,5.77
2023-04-07T17:26:03.142Z,5.27
2023-04-07T17:28:30.434Z,5.13
2023-04-07T17:30:58.562Z,5.77
2023-04-07T17:33:26.178Z,5.10
2023-04-07T17:35:53.649Z,5.77
2023-04-07T17:38:21.059Z,6.20
2023-04-07T17:40:48.428Z,5.73
2023-04-07T17:43:15.842Z,6.77
2023-04-07T17:45:43.295Z,7.70
2023-04-07T17:48:12.139Z,6.90
2023-04-07T17:50:39.768Z,9.23
2023-04-07T17:53:07.870Z,6.80
2023-04-07T17:55:35.193Z,9.70
2023-04-07T17:58:02.546Z,6.47
2023-04-07T18:00:30.641Z,11.13
2023-04-07T18:02:58.613Z,9.23
2023-04-07T18:05:27.120Z,8.97
2023-04-07T18:07:54.946Z,8.20
2023-04-07T18:10:22.404Z,9.60
2023-04-07T18:12:49.749Z,10.13
2023-04-07T18:15:17.316Z,9.40
2023-04-07T18:17:44.725Z,8.13
2023-04-07T18:20:13.215Z,9.00
2023-04-07T18:22:40.946Z,6.90
2023-04-07T18:25:09.605Z,7.80
2023-04-07T18:27:36.904Z,6.23
2023-04-07T18:30:04.518Z,8.67
2023-04-07T18:32:31.971Z,6.23
2023-04-07T18:34:59.329Z,6.57
2023-04-07T18:37:27.241Z,6.70
2023-04-07T18:39:54.640Z,8.33
2023-04-07T18:42:22.313Z,7.27
2023-04-07T18:44:49.677Z,7.13
2023-04-07T18:47:17.342Z,7.43
2023-04-07T18:49:44.992Z,9.10
2023-04-07T18:52:12.397Z,6.70
2023-04-07T18:54:39.714Z,9.30
2023-04-07T18:57:07.075Z,7.13
2023-04-07T18:59:34.409Z,6.90
2023-04-07T19:02:01.851Z,6.83
2023-04-07T19:04:29.261Z,9.10
2023-04-07T19:06:57.638Z,8.47
2023-04-07T19:09:26.011Z,9.03
2023-04-07T19:11:53.593Z,8.90
2023-04-07T19:14:21.105Z,10.60
2023-04-07T19:16:48.474Z,10.27
2023-04-07T19:19:16.944Z,9.67
2023-04-07T19:21:44.331Z,9.77
2023-04-07T19:24:11.853Z,11.10
2023-04-07T19:26:39.250Z,12.43
2023-04-07T19:29:07.163Z,9.33
2023-04-07T19:31:35.384Z,13.13
2023-04-07T19:34:02.730Z,9.73
2023-04-07T19:36:31.223Z,10.10
2023-04-07T19:38:58.515Z,11.57
2023-04-07T19:41:26.065Z,10.10
2023-04-07T19:43:53.505Z,10.60
2023-04-07T19:46:20.991Z,11.33
2023-04-07T19:48:48.654Z,11.50
2023-04-07T19:51:16.714Z,11.80
2023-04-07T19:53:43.999Z,11.70
2023-04-07T19:56:11.385Z,11.17
2023-04-07T19:58:38.681Z,11.13
2023-04-07T20:01:06.048Z,11.07
2023-04-07T20:03:33.728Z,8.80
2023-04-07T20:06:01.082Z,10.63
2023-04-07T20:08:28.506Z,8.43
2023-04-07T20:10:56.006Z,9.37
2023-04-07T20:13:23.923Z,10.67
2023-04-07T20:15:51.266Z,10.07
2023-04-07T20:18:18.704Z,9.83
2023-04-07T20:20:46.667Z,9.23
2023-04-07T20:23:16.027Z,9.37
2023-04-07T20:25:43.418Z,10.23
2023-04-07T20:28:10.916Z,8.93
2023-04-07T20:30:38.267Z,10.27
2023-04-07T20:33:05.688Z,9.53
2023-04-07T20:35:33.064Z,10.80
2023-04-07T20:38:01.225Z,10.40
2023-04-07T20:40:28.506Z,11.37
2023-04-07T20:42:56.270Z,15.20
2023-04-07T20:45:23.620Z,9.33
2023-04-07T20:47:51.110Z,9.60
2023-04-07T20:50:18.560Z,7.13
2023-04-07T20:52:46.018Z,7.90
2023-04-07T20:55:13.514Z,8.63
2023-04-07T20:57:40.874Z,9.50
2023-04-07T21:00:10.249Z,9.87
2023-04-07T21:02:38.037Z,9.07
2023-04-07T21:05:05.833Z,10.80
2023-04-07T21:07:33.124Z,11.20
2023-04-07T21:10:00.443Z,10.80
2023-04-07T21:12:27.740Z,10.63
2023-04-07T21:14:55.082Z,10.67
2023-04-07T21:17:22.658Z,11.73
2023-04-07T21:19:50.039Z,11.23
2023-04-07T21:22:17.318Z,12.17
2023-04-07T21:24:44.642Z,12.23
2023-04-07T21:27:12.305Z,11.20
2023-04-07T21:29:42.440Z,11.03
2023-04-07T21:32:10.435Z,11.33
2023-04-07T21:34:37.796Z,12.00
2023-04-07T21:37:05.151Z,11.10
2023-04-07T21:39:35.993Z,11.03
2023-04-07T21:42:04.561Z,11.23
2023-04-07T21:44:31.978Z,12.87
2023-04-07T21:46:59.417Z,11.37
2023-04-07T21:49:27.528Z,12.80
2023-04-07T21:51:56.968Z,11.57
2023-04-07T21:54:25.063Z,10.70
2023-04-07T21:56:52.823Z,10.80
2023-04-07T21:59:20.136Z,10.03
2023-04-07T22:01:47.496Z,11.10
